createdAt,value
2023-04-11T00:01:37.103Z,59.47
2023-04-11T00:04:08.240Z,59.41
2023-04-11T00:06:37.578Z,59.46
2023-04-11T00:09:06.761Z,59.15
2023-04-11T00:11:35.913Z,59.30
2023-04-11T00:14:05.922Z,59.05
2023-04-11T00:16:37.834Z,59.60
2023-04-11T00:19:09.825Z,59.30
2023-04-11T00:21:40.383Z,59.45
2023-04-11T00:24:10.009Z,59.08
2023-04-11T00:26:39.218Z,59.27
2023-04-11T00:29:08.316Z,59.18
2023-04-11T00:31:37.570Z,59.20
2023-04-11T00:34:08.269Z,59.07
2023-04-11T00:36:37.656Z,58.87
2023-04-11T00:39:06.955Z,58.85
2023-04-11T00:41:36.175Z,58.94
2023-04-11T00:44:05.367Z,58.87
2023-04-11T00:46:36.386Z,58.94
2023-04-11T00:49:05.596Z,59.05
2023-04-11T00:51:36.489Z,58.80
2023-04-11T00:54:13.748Z,58.61
2023-04-11T00:56:45.336Z,58.72
2023-04-11T00:59:14.980Z,58.83
2023-04-11T01:01:44.178Z,58.54
2023-04-11T01:04:17.832Z,58.20
2023-04-11T01:06:56.064Z,58.79
2023-04-11T01:09:29.587Z,58.51
2023-04-11T01:12:03.381Z,58.66
2023-04-11T01:14:32.883Z,58.60
2023-04-11T01:17:03.165Z,59.00
2023-04-11T01:19:37.793Z,59.20
2023-04-11T01:22:18.316Z,58.87
2023-04-11T01:24:48.865Z,59.24
2023-04-11T01:27:20.024Z,58.95
2023-04-11T01:29:49.183Z,59.08
2023-04-11T01:32:18.418Z,59.43
2023-04-11T01:34:56.936Z,59.35
2023-04-11T01:37:29.084Z,59.67
2023-04-11T01:40:01.615Z,60.10
2023-04-11T01:42:41.871Z,59.70
2023-04-11T01:45:15.091Z,59.82
2023-04-11T01:47:44.234Z,60.06
2023-04-11T01:50:15.333Z,59.77
2023-04-11T01:52:44.398Z,60.10
2023-04-11T01:55:17.539Z,60.07
2023-04-11T01:57:46.700Z,59.95
2023-04-11T02:00:20.058Z,59.69
2023-04-11T02:02:49.761Z,60.09
2023-04-11T02:05:22.609Z,59.81
2023-04-11T02:07:55.141Z,60.34
2023-04-11T02:10:28.579Z,59.88
2023-04-11T02:13:00.520Z,59.55
2023-04-11T02:15:32.745Z,59.37
2023-04-11T02:18:04.101Z,59.47
2023-04-11T02:20:40.001Z,59.62
2023-04-11T02:23:09.034Z,59.26
2023-04-11T02:25:42.128Z,59.08
2023-04-11T02:28:12.991Z,58.53
2023-04-11T02:30:42.231Z,58.29
2023-04-11T02:33:17.436Z,57.26
2023-04-11T02:35:48.934Z,56.55
2023-04-11T02:38:18.209Z,56.50
2023-04-11T02:40:50.488Z,56.26
2023-04-11T02:43:29.849Z,55.98
2023-04-11T02:46:09.621Z,55.73
2023-04-11T02:48:41.637Z,56.35
2023-04-11T02:51:10.852Z,56.61
2023-04-11T02:53:58.311Z,56.93
2023-04-11T02:56:31.291Z,57.37
2023-04-11T02:59:00.392Z,57.57
2023-04-11T03:01:29.722Z,58.08
2023-04-11T03:03:59.211Z,58.60
2023-04-11T03:06:31.393Z,59.07
2023-04-11T03:09:03.029Z,59.84
2023-04-11T03:11:37.919Z,60.29
2023-04-11T03:14:09.185Z,61.75
2023-04-11T03:16:45.571Z,62.91
2023-04-11T03:19:14.707Z,63.45
2023-04-11T03:21:43.833Z,64.84
2023-04-11T03:24:14.047Z,65.32
2023-04-11T03:26:45.061Z,65.61
2023-04-11T03:29:14.143Z,67.16
2023-04-11T03:31:46.419Z,68.90
2023-04-11T03:34:18.370Z,67.77
2023-04-11T03:37:10.671Z,70.05
2023-04-11T03:39:43.356Z,68.50
2023-04-11T03:42:14.192Z,68.07
2023-04-11T03:44:46.325Z,67.76
2023-04-11T03:47:18.388Z,68.22
2023-04-11T03:49:47.514Z,69.18
2023-04-11T03:52:17.896Z,69.33
2023-04-11T03:55:07.681Z,69.71
2023-04-11T03:57:57.093Z,70.65
2023-04-11T04:00:43.592Z,71.45
2023-04-11T04:03:17.292Z,70.66
2023-04-11T04:05:46.583Z,73.28
2023-04-11T04:08:18.601Z,73.15
2023-04-11T04:10:50.741Z,72.92
2023-04-11T04:13:21.289Z,71.63
2023-04-11T04:15:56.463Z,71.58
2023-04-11T04:18:28.502Z,70.68
2023-04-11T04:20:57.679Z,70.16
2023-04-11T04:23:30.413Z,70.09
2023-04-11T04:26:02.543Z,70.40
2023-04-11T04:28:35.465Z,69.67
2023-04-11T04:31:04.583Z,68.81
2023-04-11T04:33:33.691Z,68.91
2023-04-11T04:36:07.444Z,68.33
2023-04-11T04:38:46.494Z,67.94
2023-04-11T04:41:16.606Z,67.34
2023-04-11T04:43:47.244Z,65.87
2023-04-11T04:46:19.882Z,63.87
2023-04-11T04:49:06.026Z,63.33
2023-04-11T04:51:35.239Z,63.02
2023-04-11T04:54:07.166Z,62.26
2023-04-11T04:56:36.437Z,61.33
2023-04-11T04:59:07.277Z,60.79
2023-04-11T05:01:40.399Z,59.18
2023-04-11T05:04:28.155Z,58.65
2023-04-11T05:06:57.450Z,58.15
2023-04-11T05:09:44.760Z,57.86
2023-04-11T05:12:14.214Z,57.51
2023-04-11T05:14:44.944Z,57.56
2023-04-11T05:17:14.055Z,57.27
2023-04-11T05:19:43.127Z,56.74
2023-04-11T05:22:12.533Z,56.58
2023-04-11T05:24:59.796Z,56.29
2023-04-11T05:27:28.973Z,56.53
2023-04-11T05:30:38.200Z,56.41
2023-04-11T05:33:07.966Z,56.14
2023-04-11T05:35:54.024Z,56.04
2023-04-11T05:38:41.648Z,56.02
2023-04-11T05:41:11.138Z,56.07
2023-04-11T05:43:40.296Z,56.11
2023-04-11T05:46:13.143Z,55.40
2023-04-11T05:48:42.347Z,55.26
2023-04-11T05:51:30.147Z,55.24
2023-04-11T05:53:59.281Z,54.50
2023-04-11T05:56:28.403Z,54.87
2023-04-11T05:58:57.584Z,55.05
2023-04-11T06:01:28.358Z,54.98
2023-04-11T06:03:58.027Z,54.09
2023-04-11T06:06:44.696Z,54.11
2023-04-11T06:09:32.017Z,53.91
2023-04-11T06:12:02.602Z,53.83
2023-04-11T06:14:32.659Z,53.48
2023-04-11T06:17:03.769Z,54.17
2023-04-11T06:19:32.965Z,54.38
2023-04-11T06:22:02.300Z,54.17
2023-04-11T06:24:38.625Z,53.84
2023-04-11T06:27:10.313Z,53.62
2023-04-11T06:29:57.966Z,53.39
2023-04-11T06:32:28.776Z,53.36
2023-04-11T06:34:58.162Z,53.70
2023-04-11T06:37:27.644Z,54.21
2023-04-11T06:40:15.086Z,53.84
2023-04-11T06:42:44.748Z,53.92
2023-04-11T06:45:14.333Z,53.51
2023-04-11T06:47:44.980Z,52.88
2023-04-11T06:50:14.385Z,53.17
2023-04-11T06:52:43.556Z,52.55
2023-04-11T06:55:31.432Z,52.44
2023-04-11T06:58:19.103Z,53.24
2023-04-11T07:01:05.266Z,53.41
2023-04-11T07:03:54.764Z,53.31
2023-04-11T07:06:24.375Z,52.96
2023-04-11T07:08:54.142Z,52.45
2023-04-11T07:11:43.260Z,52.45
2023-04-11T07:14:12.423Z,52.03
2023-04-11T07:17:02.835Z,52.37
2023-04-11T07:19:50.176Z,52.77
2023-04-11T07:22:19.360Z,52.70
2023-04-11T07:24:48.530Z,52.73
2023-04-11T07:27:36.638Z,52.52
2023-04-11T07:30:06.220Z,52.15
2023-04-11T07:32:52.795Z,52.24
2023-04-11T07:35:24.721Z,52.37
2023-04-11T07:37:54.490Z,52.84
2023-04-11T07:40:23.717Z,52.81
2023-04-11T07:42:52.936Z,52.51
2023-04-11T07:45:42.953Z,52.35
2023-04-11T07:48:12.420Z,52.52
2023-04-11T07:51:06.518Z,52.65
2023-04-11T07:53:38.495Z,52.44
2023-04-11T07:56:08.430Z,52.41
2023-04-11T07:58:37.808Z,51.41
2023-04-11T08:01:11.699Z,50.91
2023-04-11T08:03:54.172Z,51.23
2023-04-11T08:07:00.342Z,50.99
2023-04-11T08:09:49.507Z,51.16
2023-04-11T08:12:18.646Z,50.45
2023-04-11T08:14:50.565Z,51.20
2023-04-11T08:17:28.249Z,49.97
2023-04-11T08:20:19.456Z,50.12
2023-04-11T08:22:49.367Z,50.51
2023-04-11T08:25:34.998Z,50.20
2023-04-11T08:28:37.053Z,50.10
2023-04-11T08:31:15.069Z,49.68
2023-04-11T08:33:56.997Z,49.81
2023-04-11T08:40:06.251Z,49.88
2023-04-11T08:46:19.941Z,48.18
2023-04-11T08:48:49.185Z,47.75
2023-04-11T08:51:41.088Z,48.30
2023-04-11T08:54:11.347Z,48.19
2023-04-11T08:56:43.702Z,48.77
2023-04-11T08:59:14.251Z,48.70
2023-04-11T09:02:04.123Z,49.10
2023-04-11T09:04:42.238Z,49.24
2023-04-11T09:07:48.079Z,48.80
2023-04-11T09:10:37.537Z,48.21
2023-04-11T09:13:22.738Z,48.47
2023-04-11T09:16:06.504Z,48.62
2023-04-11T09:18:37.045Z,48.69
2023-04-11T09:21:07.280Z,49.17
2023-04-11T09:23:36.481Z,48.55
2023-04-11T09:26:30.411Z,47.88
2023-04-11T09:29:16.502Z,48.31
2023-04-11T09:32:05.175Z,48.83
2023-04-11T09:34:37.918Z,48.57
2023-04-11T09:37:07.238Z,48.64
2023-04-11T09:39:36.474Z,48.85
2023-04-11T09:42:42.901Z,48.81
2023-04-11T09:45:51.625Z,49.06
2023-04-11T09:48:39.598Z,49.27
2023-04-11T09:51:27.638Z,49.05
2023-04-11T09:54:05.773Z,49.03
2023-04-11T09:56:38.628Z,49.41
2023-04-11T09:59:10.185Z,50.13
2023-04-11T10:01:41.624Z,49.53
2023-04-11T10:04:14.257Z,49.92
2023-04-11T10:06:50.466Z,49.33
2023-04-11T10:09:20.264Z,49.46
2023-04-11T10:11:49.589Z,49.33
2023-04-11T10:14:46.492Z,49.34
2023-04-11T10:17:34.576Z,48.83
2023-04-11T10:20:50.661Z,49.15
2023-04-11T10:23:19.844Z,49.49
2023-04-11T10:25:58.892Z,49.46
2023-04-11T10:28:53.571Z,49.82
2023-04-11T10:31:22.799Z,49.97
2023-04-11T10:34:16.504Z,50.30
2023-04-11T10:37:06.465Z,49.45
2023-04-11T10:40:10.262Z,49.60
2023-04-11T10:42:41.388Z,49.71
2023-04-11T10:45:40.031Z,49.73
2023-04-11T10:48:13.456Z,49.05
2023-04-11T10:50:46.558Z,49.28
2023-04-11T10:53:39.009Z,49.51
2023-04-11T10:56:26.642Z,49.33
2023-04-11T10:58:55.777Z,49.34
2023-04-11T11:01:37.063Z,48.96
2023-04-11T11:04:49.384Z,49.06
2023-04-11T11:07:19.226Z,48.66
2023-04-11T11:09:52.966Z,48.85
2023-04-11T11:12:40.284Z,49.00
2023-04-11T11:15:15.445Z,49.34
2023-04-11T11:17:45.292Z,49.46
2023-04-11T11:20:20.475Z,48.83
2023-04-11T11:23:24.254Z,49.13
2023-04-11T11:26:13.050Z,49.43
2023-04-11T11:28:48.855Z,49.38
2023-04-11T11:31:17.970Z,49.87
2023-04-11T11:34:22.200Z,49.96
2023-04-11T11:36:53.434Z,49.58
2023-04-11T11:39:41.367Z,49.38
2023-04-11T11:42:12.188Z,49.34
2023-04-11T11:47:55.612Z,49.50
2023-04-11T11:50:29.313Z,49.55
2023-04-11T11:53:14.163Z,49.95
2023-04-11T11:56:32.113Z,50.47
2023-04-11T11:59:03.740Z,50.91
2023-04-11T12:01:42.413Z,50.81
2023-04-11T12:04:13.498Z,51.35
2023-04-11T12:06:42.705Z,51.61
2023-04-11T12:09:12.712Z,51.44
2023-04-11T12:11:43.265Z,50.92
2023-04-11T12:14:48.987Z,50.49
2023-04-11T12:17:38.126Z,50.59
2023-04-11T12:20:25.748Z,50.95
2023-04-11T12:22:57.770Z,50.97
2023-04-11T12:25:44.841Z,50.98
2023-04-11T12:28:32.362Z,51.20
2023-04-11T12:31:01.538Z,51.08
2023-04-11T12:33:32.157Z,51.15
2023-04-11T12:36:02.215Z,51.74
2023-04-11T12:38:32.085Z,51.98
2023-04-11T12:41:29.655Z,51.76
2023-04-11T12:43:50.662Z,52.29
2023-04-11T12:46:37.998Z,52.57
2023-04-11T12:49:28.011Z,52.26
2023-04-11T12:51:57.289Z,52.21
2023-04-11T12:54:44.859Z,52.19
2023-04-11T12:57:31.058Z,51.80
2023-04-11T13:00:19.229Z,51.49
2023-04-11T13:02:49.112Z,51.16
2023-04-11T13:05:20.291Z,51.05
2023-04-11T13:08:06.368Z,51.31
2023-04-11T13:10:35.499Z,51.43
2023-04-11T13:13:15.390Z,51.62
2023-04-11T13:15:48.271Z,51.58
2023-04-11T13:18:17.478Z,51.48
2023-04-11T13:20:48.104Z,51.44
2023-04-11T13:23:17.556Z,51.65
2023-04-11T13:26:04.890Z,51.86
2023-04-11T13:28:35.387Z,52.11
2023-04-11T13:31:04.751Z,51.88
2023-04-11T13:33:33.910Z,51.97
2023-04-11T13:36:22.954Z,52.06
2023-04-11T13:38:53.036Z,52.49
2023-04-11T13:41:23.136Z,52.17
2023-04-11T13:43:53.712Z,52.51
2023-04-11T13:46:41.318Z,52.16
2023-04-11T13:49:10.429Z,52.63
2023-04-11T13:51:41.669Z,52.31
2023-04-11T13:54:10.864Z,52.76
2023-04-11T13:56:59.440Z,52.92
2023-04-11T13:59:29.404Z,52.66
2023-04-11T14:01:58.606Z,53.03
2023-04-11T14:04:27.967Z,53.24
2023-04-11T14:06:58.526Z,53.49
2023-04-11T14:09:27.734Z,53.36
2023-04-11T14:12:13.675Z,53.29
2023-04-11T14:14:42.732Z,53.87
2023-04-11T14:17:29.623Z,53.44
2023-04-11T14:19:58.751Z,54.05
2023-04-11T14:22:29.602Z,53.67
2023-04-11T14:24:58.826Z,54.07
2023-04-11T14:27:28.135Z,54.09
2023-04-11T14:30:15.545Z,53.79
2023-04-11T14:32:44.827Z,54.46
2023-04-11T14:35:14.068Z,54.41
2023-04-11T14:37:45.294Z,54.53
2023-04-11T14:40:15.787Z,55.22
2023-04-11T14:42:44.984Z,55.33
2023-04-11T14:45:14.047Z,54.89
2023-04-11T14:47:43.870Z,54.82
2023-04-11T14:50:13.355Z,54.94
2023-04-11T14:52:44.050Z,54.72
2023-04-11T14:55:14.012Z,54.27
2023-04-11T14:57:47.722Z,54.31
2023-04-11T15:00:21.413Z,54.75
2023-04-11T15:03:10.001Z,54.83
2023-04-11T15:05:39.237Z,55.12
2023-04-11T15:08:10.354Z,55.21
2023-04-11T15:10:39.440Z,55.57
2023-04-11T15:13:09.490Z,55.83
2023-04-11T15:15:38.827Z,55.48
2023-04-11T15:18:26.416Z,56.16
2023-04-11T15:20:56.960Z,56.25
2023-04-11T15:23:30.460Z,56.15
2023-04-11T15:26:01.152Z,56.56
2023-04-11T15:28:36.945Z,56.06
2023-04-11T15:31:25.423Z,56.35
2023-04-11T15:34:00.240Z,56.88
2023-04-11T15:36:30.261Z,56.75
2023-04-11T15:39:04.963Z,56.60
2023-04-11T15:41:34.057Z,56.76
2023-04-11T15:44:03.250Z,56.05
2023-04-11T15:46:36.792Z,55.63
2023-04-11T15:49:11.385Z,56.10
2023-04-11T15:52:01.112Z,56.02
2023-04-11T15:54:39.415Z,55.47
2023-04-11T15:57:08.759Z,55.53
2023-04-11T15:59:41.817Z,55.64
2023-04-11T16:02:11.032Z,55.13
2023-04-11T16:04:47.856Z,55.40
2023-04-11T16:07:19.745Z,55.61
2023-04-11T16:09:52.745Z,55.27
2023-04-11T16:12:57.460Z,55.04
2023-04-11T16:15:26.701Z,55.65
2023-04-11T16:17:58.451Z,54.86
2023-04-11T16:20:27.636Z,54.83
2023-04-11T16:22:56.795Z,55.11
2023-04-11T16:25:46.693Z,55.04
2023-04-11T16:28:52.834Z,55.29
2023-04-11T16:31:42.169Z,55.16
2023-04-11T16:34:11.436Z,54.56
2023-04-11T16:36:40.780Z,54.57
2023-04-11T16:39:13.233Z,54.86
2023-04-11T16:41:49.691Z,55.17
2023-04-11T16:44:36.958Z,54.55
2023-04-11T16:47:09.042Z,54.75
2023-04-11T16:49:41.100Z,54.67
2023-04-11T16:52:28.694Z,54.52
2023-04-11T16:54:57.903Z,54.85
2023-04-11T16:57:34.921Z,54.77
2023-04-11T17:00:17.719Z,54.28
2023-04-11T17:02:46.999Z,54.41
2023-04-11T17:05:33.312Z,54.65
2023-04-11T17:08:02.480Z,54.60
2023-04-11T17:10:34.701Z,54.64
2023-04-11T17:13:05.366Z,54.33
2023-04-11T17:15:36.156Z,54.43
2023-04-11T17:18:06.916Z,54.73
2023-04-11T17:20:54.244Z,54.76
2023-04-11T17:23:35.207Z,54.57
2023-04-11T17:26:11.139Z,54.81
2023-04-11T17:28:42.736Z,54.30
2023-04-11T17:31:15.560Z,54.44
2023-04-11T17:34:01.912Z,54.75
2023-04-11T17:36:33.753Z,54.79
2023-04-11T17:39:04.312Z,54.91
2023-04-11T17:41:50.606Z,54.94
2023-04-11T17:44:21.311Z,54.87
2023-04-11T17:46:50.722Z,54.92
2023-04-11T17:49:20.239Z,54.83
2023-04-11T17:51:59.278Z,54.84
2023-04-11T17:54:28.982Z,54.68
2023-04-11T17:56:58.176Z,55.16
2023-04-11T17:59:46.198Z,54.98
2023-04-11T18:02:15.433Z,54.94
2023-04-11T18:04:45.640Z,54.62
2023-04-11T18:07:14.895Z,54.74
2023-04-11T18:09:44.248Z,54.51
2023-04-11T18:12:13.440Z,54.62
2023-04-11T18:14:44.165Z,54.83
2023-04-11T18:17:13.456Z,54.82
2023-04-11T18:19:42.733Z,54.58
2023-04-11T18:22:30.088Z,54.68
2023-04-11T18:25:16.272Z,54.63
2023-04-11T18:27:45.619Z,54.90
2023-04-11T18:30:18.006Z,54.77
2023-04-11T18:32:50.087Z,54.83
2023-04-11T18:35:21.428Z,54.93
2023-04-11T18:38:08.587Z,55.16
2023-04-11T18:40:56.537Z,54.67
2023-04-11T18:43:43.470Z,55.02
2023-04-11T18:46:14.662Z,54.84
2023-04-11T18:48:43.988Z,55.02
2023-04-11T18:51:13.233Z,54.92
2023-04-11T18:53:42.495Z,54.79
2023-04-11T18:56:11.891Z,55.32
2023-04-11T18:58:45.711Z,55.43
2023-04-11T19:01:17.977Z,55.47
2023-04-11T19:03:47.918Z,55.87
2023-04-11T19:06:17.559Z,56.18
2023-04-11T19:08:47.408Z,55.70
2023-04-11T19:11:16.620Z,56.08
2023-04-11T19:14:03.731Z,56.69
2023-04-11T19:16:51.490Z,57.05
2023-04-11T19:19:20.711Z,56.92
2023-04-11T19:22:08.549Z,56.71
2023-04-11T19:24:55.969Z,56.64
2023-04-11T19:27:25.218Z,57.02
2023-04-11T19:29:54.388Z,58.97
2023-04-11T19:32:25.164Z,61.88
2023-04-11T19:34:54.428Z,61.83
2023-04-11T19:37:24.260Z,61.78
2023-04-11T19:39:53.525Z,60.56
2023-04-11T19:42:22.863Z,60.51
2023-04-11T19:44:52.047Z,59.69
2023-04-11T19:47:21.457Z,60.76
2023-04-11T19:50:29.217Z,60.89
2023-04-11T19:52:58.732Z,60.25
2023-04-11T19:55:44.725Z,60.27
2023-04-11T19:58:13.968Z,61.46
2023-04-11T20:00:43.213Z,61.10
2023-04-11T20:03:15.096Z,60.84
2023-04-11T20:05:46.372Z,61.23
2023-04-11T20:08:15.990Z,61.17
2023-04-11T20:11:04.315Z,61.90
2023-04-11T20:13:34.249Z,61.95
2023-04-11T20:16:05.236Z,62.07
2023-04-11T20:18:52.776Z,62.03
2023-04-11T20:21:40.330Z,62.33
2023-04-11T20:24:28.229Z,61.74
2023-04-11T20:27:16.220Z,61.29
2023-04-11T20:29:46.297Z,61.55
2023-04-11T20:32:50.956Z,60.87
2023-04-11T20:35:20.422Z,61.57
2023-04-11T20:37:51.599Z,61.54
2023-04-11T20:40:37.906Z,61.98
2023-04-11T20:43:26.073Z,61.47
2023-04-11T20:46:15.056Z,61.21
2023-04-11T20:48:44.516Z,61.12
2023-04-11T20:51:15.247Z,61.76
2023-04-11T20:53:46.238Z,61.85
2023-04-11T20:56:16.531Z,61.74
2023-04-11T20:58:46.869Z,61.98
2023-04-11T21:01:34.221Z,61.68
2023-04-11T21:04:03.841Z,61.79
2023-04-11T21:06:33.700Z,61.88
2023-04-11T21:09:05.947Z,61.89
2023-04-11T21:11:35.381Z,61.64
2023-04-11T21:14:04.508Z,62.20
2023-04-11T21:16:33.656Z,61.92
2023-04-11T21:19:02.841Z,61.70
2023-04-11T21:21:50.356Z,61.17
2023-04-11T21:24:21.073Z,61.89
2023-04-11T21:26:50.169Z,60.82
2023-04-11T21:29:19.298Z,60.93
2023-04-11T21:31:48.590Z,61.21
2023-04-11T21:34:36.244Z,61.59
2023-04-11T21:37:23.270Z,61.58
2023-04-11T21:39:56.274Z,61.58
2023-04-11T21:42:43.869Z,60.43
2023-04-11T21:45:31.311Z,60.62
2023-04-11T21:48:00.530Z,60.62
2023-04-11T21:50:29.829Z,60.71
2023-04-11T21:52:59.114Z,60.34
2023-04-11T21:55:29.880Z,60.47
2023-04-11T21:58:28.478Z,60.90
2023-04-11T22:01:17.060Z,60.86
2023-04-11T22:03:46.391Z,60.95
2023-04-11T22:06:15.660Z,60.71
2023-04-11T22:08:51.037Z,60.87
2023-04-11T22:11:21.812Z,61.71
2023-04-11T22:13:52.708Z,61.71
2023-04-11T22:16:26.744Z,61.08
2023-04-11T22:18:58.615Z,60.98
2023-04-11T22:21:28.224Z,61.37
2023-04-11T22:23:58.576Z,60.79
2023-04-11T22:26:34.663Z,61.12
2023-04-11T22:29:22.580Z,61.33
2023-04-11T22:31:53.140Z,60.85
2023-04-11T22:34:22.315Z,61.08
2023-04-11T22:36:51.456Z,61.44
2023-04-11T22:39:21.178Z,61.06
2023-04-11T22:42:11.362Z,61.33
2023-04-11T22:44:41.354Z,60.59
2023-04-11T22:47:16.853Z,60.96
2023-04-11T22:50:04.480Z,61.13
2023-04-11T22:52:33.679Z,61.07
2023-04-11T22:55:04.636Z,61.33
2023-04-11T22:57:36.895Z,61.31
2023-04-11T23:00:24.775Z,61.53
2023-04-11T23:03:12.941Z,61.35
2023-04-11T23:05:59.647Z,61.23
2023-04-11T23:08:29.000Z,60.80
2023-04-11T23:10:58.206Z,61.06
2023-04-11T23:13:28.904Z,61.13
2023-04-11T23:16:16.491Z,60.95
2023-04-11T23:18:45.717Z,61.18
2023-04-11T23:21:15.123Z,61.04
2023-04-11T23:23:44.428Z,61.41
2023-04-11T23:26:21.058Z,61.21
2023-04-11T23:28:52.076Z,61.38
2023-04-11T23:31:21.432Z,60.89
2023-04-11T23:33:50.684Z,60.90
2023-04-11T23:36:19.825Z,60.99
2023-04-11T23:39:07.301Z,60.86
2023-04-11T23:41:36.520Z,60.96
2023-04-11T23:44:07.354Z,61.06
2023-04-11T23:46:36.522Z,61.41
2023-04-11T23:49:05.976Z,60.65
2023-04-11T23:51:35.150Z,60.71
2023-04-11T23:54:22.481Z,61.05
2023-04-11T23:56:51.801Z,60.80
2023-04-11T23:59:22.420Z,60.60
